Time;durP1;ratioP1;P1;durP2;ratioP2;P2;SDS_P1;SDS_P2;PMS_P1;PMS_P2;Temp;Humidity;BMP_temperature;BMP_pressure;BME280_temperature;BME280_humidity;BME280_pressure;Samples;Min_cycle;Max_cycle;Signal;HPM_P1;HPM_P2
2021/12/21 00:00:43;;;;;;;1.10;0.50;;;1.50;93.80;;;;;;4846608;29;20053;-77
2021/12/21 00:03:10;;;;;;;2.27;0.50;;;1.50;93.80;;;;;;4843657;29;20053;-76
2021/12/21 00:05:38;;;;;;;3.97;1.43;;;1.50;93.80;;;;;;4828628;29;20106;-76
2021/12/21 00:08:11;;;;;;;1.30;0.47;;;1.40;93.80;;;;;;4840695;29;20510;-77
2021/12/21 00:10:44;;;;;;;1.83;0.70;;;1.40;93.80;;;;;;4832096;29;20045;-77
2021/12/21 00:26:12;;;;;;;3.10;0.70;;;1.30;93.90;;;;;;4845655;29;20083;-76
2021/12/21 00:28:50;;;;;;;1.10;0.57;;;1.20;93.80;;;;;;4837224;29;20057;-76
2021/12/21 00:31:21;;;;;;;1.90;0.50;;;1.20;93.90;;;;;;4842121;29;20060;-76
2021/12/21 00:33:51;;;;;;;1.90;0.50;;;1.20;93.90;;;;;;4843737;29;20079;-76
2021/12/21 00:36:21;;;;;;;0.93;0.40;;;1.10;93.90;;;;;;4840825;29;20076;-76
2021/12/21 00:38:50;;;;;;;1.73;0.50;;;1.10;93.90;;;;;;4840731;29;20042;-77
2021/12/21 00:41:18;;;;;;;3.07;0.90;;;1.10;93.90;;;;;;4858216;29;20058;-76
2021/12/21 00:43:46;;;;;;;2.27;0.70;;;1.00;93.90;;;;;;4817734;29;20066;-77
2021/12/21 00:46:14;;;;;;;3.10;0.50;;;1.00;93.90;;;;;;4839840;29;20069;-74
2021/12/21 00:48:49;;;;;;;1.33;0.63;;;1.00;94.00;;;;;;4840007;29;20068;-74
2021/12/21 00:51:18;;;;;;;1.40;0.77;;;1.00;94.00;;;;;;4842455;29;21286;-74
2021/12/21 00:53:46;;;;;;;1.53;0.80;;;1.00;94.00;;;;;;4832183;29;20065;-74
2021/12/21 00:56:13;;;;;;;3.13;1.03;;;1.00;94.00;;;;;;4838871;29;20049;-74
2021/12/21 00:58:40;;;;;;;2.20;0.70;;;0.90;94.00;;;;;;4840657;29;20050;-74
2021/12/21 01:01:08;;;;;;;2.90;0.73;;;0.90;94.00;;;;;;4842299;29;20062;-75
2021/12/21 01:03:38;;;;;;;2.33;0.87;;;0.90;94.00;;;;;;4827529;29;20050;-74
2021/12/21 01:06:15;;;;;;;2.27;0.70;;;0.90;94.00;;;;;;4841114;29;20112;-73
2021/12/21 01:09:07;;;;;;;1.47;0.70;;;0.90;94.00;;;;;;4842000;29;20054;-74
2021/12/21 01:11:42;;;;;;;1.47;0.63;;;0.90;94.00;;;;;;4828587;29;20060;-74
2021/12/21 01:15:19;;;;;;;2.30;0.70;;;0.80;94.00;;;;;;4839583;29;20045;-73
2021/12/21 01:17:15;;;;;;;2.27;0.60;;;0.80;94.00;;;;;;4843324;29;20049;-75
2021/12/21 01:19:48;;;;;;;2.57;0.47;;;0.80;94.10;;;;;;4842603;29;20061;-74
2021/12/21 01:22:54;;;;;;;2.35;0.77;;;0.70;94.10;;;;;;4837324;29;20053;-74
2021/12/21 01:30:38;;;;;;;2.73;0.73;;;0.70;94.10;;;;;;4841931;29;20056;-74
2021/12/21 01:33:29;;;;;;;3.00;0.70;;;0.70;94.10;;;;;;4843505;29;20787;-74
2021/12/21 01:35:57;;;;;;;2.67;0.60;;;0.70;94.10;;;;;;4842462;29;20145;-74
2021/12/21 01:38:33;;;;;;;1.70;0.70;;;0.60;94.10;;;;;;4827328;29;20140;-74
2021/12/21 01:41:08;;;;;;;2.07;0.63;;;0.60;94.10;;;;;;4839225;29;20053;-74
2021/12/21 01:43:42;;;;;;;1.87;0.57;;;0.60;94.10;;;;;;4829003;29;20057;-74
2021/12/21 01:51:40;;;;;;;1.40;0.60;;;0.50;94.10;;;;;;4842880;29;20061;-73
2021/12/21 01:54:08;;;;;;;2.57;0.73;;;0.50;94.10;;;;;;4841492;29;20073;-74
2021/12/21 01:56:36;;;;;;;3.00;0.70;;;0.50;94.40;;;;;;4843955;29;20137;-73
2021/12/21 01:59:03;;;;;;;2.50;0.90;;;0.50;94.10;;;;;;4824616;29;20105;-73
2021/12/21 02:01:30;;;;;;;3.23;0.50;;;0.50;94.10;;;;;;4839236;29;20456;-76
2021/12/21 02:03:57;;;;;;;2.10;0.70;;;0.50;94.10;;;;;;4841100;29;20084;-77
2021/12/21 02:06:27;;;;;;;2.00;0.70;;;0.50;94.10;;;;;;4823798;29;20080;-76
2021/12/21 02:08:55;;;;;;;2.50;0.70;;;0.40;94.20;;;;;;4837508;29;20049;-76
2021/12/21 02:11:23;;;;;;;1.93;0.63;;;0.40;94.20;;;;;;4827664;29;20595;-75
2021/12/21 02:13:51;;;;;;;1.40;0.50;;;0.40;94.10;;;;;;4820815;29;20152;-74
2021/12/21 02:16:28;;;;;;;1.70;0.60;;;0.40;94.10;;;;;;4836288;29;20046;-74
2021/12/21 02:19:02;;;;;;;1.60;0.60;;;0.40;94.10;;;;;;4839289;29;20054;-74
2021/12/21 02:21:36;;;;;;;1.33;0.70;;;0.40;94.20;;;;;;4839257;29;20156;-74
2021/12/21 02:24:09;;;;;;;2.10;0.93;;;0.40;94.20;;;;;;4839193;29;20182;-73
2021/12/21 02:26:45;;;;;;;1.67;0.50;;;0.40;94.20;;;;;;4817901;29;20054;-73
2021/12/21 02:31:43;;;;;;;1.47;0.50;;;0.30;94.10;;;;;;4840905;29;20141;-73
2021/12/21 02:34:10;;;;;;;2.17;0.60;;;0.30;94.20;;;;;;4840701;29;20077;-74
2021/12/21 02:36:39;;;;;;;0.97;0.40;;;0.30;94.20;;;;;;4827102;29;20049;-76
2021/12/21 02:39:12;;;;;;;1.10;0.43;;;0.30;94.20;;;;;;4832517;29;20049;-76
2021/12/21 02:41:39;;;;;;;1.47;0.63;;;0.30;94.20;;;;;;4829088;29;20052;-76
2021/12/21 02:44:07;;;;;;;1.30;0.50;;;0.30;94.20;;;;;;4847631;29;20503;-76
2021/12/21 02:46:38;;;;;;;2.23;0.60;;;0.20;94.20;;;;;;4844740;29;20080;-76
2021/12/21 02:49:07;;;;;;;1.47;0.60;;;0.20;94.20;;;;;;4836010;29;20046;-76
2021/12/21 02:51:38;;;;;;;1.40;0.50;;;0.20;94.20;;;;;;4826617;29;20059;-76
2021/12/21 02:54:05;;;;;;;1.67;0.60;;;0.20;94.20;;;;;;4849331;29;20105;-77
2021/12/21 02:56:32;;;;;;;2.00;0.70;;;0.20;94.20;;;;;;4844298;29;20050;-76
2021/12/21 02:59:00;;;;;;;1.93;0.70;;;0.20;94.20;;;;;;4827197;29;20044;-77
2021/12/21 03:01:29;;;;;;;1.60;0.60;;;0.20;94.20;;;;;;4846381;29;20046;-75
2021/12/21 03:03:57;;;;;;;1.63;0.50;;;0.20;94.20;;;;;;4828782;29;20073;-76
2021/12/21 03:08:58;;;;;;;1.77;0.60;;;0.10;94.20;;;;;;4839951;29;20121;-76
2021/12/21 03:11:47;;;;;;;1.60;0.60;;;0.10;94.20;;;;;;4845692;29;20057;-77
2021/12/21 03:14:17;;;;;;;2.50;0.53;;;0.10;94.20;;;;;;4843875;29;20073;-76
2021/12/21 03:16:44;;;;;;;1.30;0.47;;;0.10;94.20;;;;;;4843848;29;20049;-75
2021/12/21 03:19:11;;;;;;;1.63;0.63;;;0.10;94.20;;;;;;4830191;29;20046;-78
2021/12/21 03:21:39;;;;;;;2.97;0.73;;;0.10;94.20;;;;;;4848349;29;20065;-76
2021/12/21 03:24:07;;;;;;;1.20;0.47;;;0.00;94.20;;;;;;4830513;29;20173;-76
2021/12/21 03:26:35;;;;;;;1.43;0.50;;;0.00;94.20;;;;;;4844829;29;20057;-77
2021/12/21 03:29:04;;;;;;;1.50;0.60;;;0.00;94.20;;;;;;4841733;29;20494;-76
2021/12/21 03:31:33;;;;;;;1.67;0.63;;;0.00;94.20;;;;;;4844774;29;20132;-76
2021/12/21 03:34:00;;;;;;;1.60;0.60;;;0.00;94.20;;;;;;4827598;29;20547;-75
2021/12/21 03:36:27;;;;;;;1.40;0.60;;;0.00;94.50;;;;;;4846934;29;20061;-73
2021/12/21 03:39:18;;;;;;;1.27;0.57;;;0.00;94.20;;;;;;4843383;29;20053;-74
2021/12/21 03:41:56;;;;;;;1.27;0.50;;;0.00;94.30;;;;;;4845204;29;20064;-76
2021/12/21 03:44:25;;;;;;;1.00;0.50;;;0.00;94.30;;;;;;4843271;29;20065;-76
2021/12/21 03:46:55;;;;;;;2.10;0.77;;;0.00;94.30;;;;;;4843188;29;20053;-76
2021/12/21 03:52:11;;;;;;;1.57;0.50;;;-0.10;94.30;;;;;;4840157;29;20069;-77
2021/12/21 03:54:40;;;;;;;1.20;0.53;;;-0.10;94.30;;;;;;4841471;29;20053;-77
2021/12/21 03:57:11;;;;;;;2.27;0.63;;;-0.10;94.30;;;;;;4839675;29;20050;-77
2021/12/21 03:59:41;;;;;;;1.63;0.70;;;-0.10;94.30;;;;;;4826904;29;20054;-77
2021/12/21 04:02:11;;;;;;;1.10;0.50;;;-0.10;94.30;;;;;;4841178;29;20049;-77
2021/12/21 04:04:39;;;;;;;1.70;0.53;;;-0.10;94.30;;;;;;4842359;29;20061;-76
2021/12/21 04:07:07;;;;;;;2.73;0.53;;;-0.10;94.30;;;;;;4829226;29;20053;-76
2021/12/21 04:09:34;;;;;;;1.53;0.60;;;-0.20;94.30;;;;;;4831308;29;20049;-76
2021/12/21 04:12:04;;;;;;;1.53;0.60;;;-0.10;94.30;;;;;;4844454;29;20057;-77
2021/12/21 04:14:33;;;;;;;2.10;0.60;;;-0.10;94.30;;;;;;4819650;29;20508;-77
2021/12/21 04:17:00;;;;;;;2.10;0.70;;;-0.10;94.30;;;;;;4835575;29;20045;-77
2021/12/21 04:19:27;;;;;;;1.97;0.80;;;-0.20;94.20;;;;;;4844665;29;20057;-78
2021/12/21 04:21:54;;;;;;;1.20;0.47;;;-0.20;94.30;;;;;;4825620;29;20050;-77
2021/12/21 04:24:21;;;;;;;1.50;0.53;;;-0.20;94.30;;;;;;4840398;29;20129;-77
2021/12/21 04:26:50;;;;;;;2.87;1.13;;;-0.20;94.30;;;;;;4840123;29;20057;-77
2021/12/21 04:29:19;;;;;;;2.17;0.60;;;-0.20;94.30;;;;;;4842605;29;20057;-77
2021/12/21 04:31:48;;;;;;;1.43;0.77;;;-0.20;94.20;;;;;;4844451;29;20053;-77
2021/12/21 04:34:17;;;;;;;1.73;0.77;;;-0.20;94.20;;;;;;4821897;29;20084;-77
2021/12/21 04:36:47;;;;;;;1.67;0.67;;;-0.20;94.20;;;;;;4841979;29;20042;-77
2021/12/21 04:39:32;;;;;;;2.60;0.80;;;-0.20;94.30;;;;;;4829384;29;20061;-77
2021/12/21 04:41:59;;;;;;;1.83;0.90;;;-0.20;94.30;;;;;;4837675;29;20053;-76
2021/12/21 04:44:30;;;;;;;2.17;0.73;;;-0.20;94.30;;;;;;4817143;29;20086;-77
2021/12/21 04:46:57;;;;;;;2.07;0.70;;;-0.30;94.30;;;;;;4828483;29;20054;-76
2021/12/21 04:49:25;;;;;;;2.57;0.90;;;-0.20;94.30;;;;;;4830881;29;20725;-77
2021/12/21 04:51:52;;;;;;;1.53;0.70;;;-0.30;94.30;;;;;;4825400;29;20065;-77
2021/12/21 04:54:19;;;;;;;2.83;0.90;;;-0.30;94.30;;;;;;4829896;29;20102;-76
2021/12/21 04:56:46;;;;;;;2.80;0.80;;;-0.30;94.30;;;;;;4843322;29;20098;-78
2021/12/21 04:59:13;;;;;;;2.93;0.80;;;-0.30;94.30;;;;;;4843603;29;20045;-77
2021/12/21 05:01:43;;;;;;;3.03;0.80;;;-0.30;94.30;;;;;;4831640;29;20060;-77
2021/12/21 05:04:10;;;;;;;2.47;0.70;;;-0.30;94.20;;;;;;4840009;29;20088;-77
2021/12/21 05:06:37;;;;;;;2.33;0.90;;;-0.30;94.20;;;;;;4840313;29;20054;-77
2021/12/21 05:09:11;;;;;;;2.40;1.13;;;-0.30;94.30;;;;;;4842697;29;20133;-77
2021/12/21 05:11:40;;;;;;;1.80;0.80;;;-0.30;94.30;;;;;;4826426;29;21328;-77
2021/12/21 05:14:09;;;;;;;1.83;1.00;;;-0.30;94.30;;;;;;4843560;29;20046;-77
2021/12/21 05:16:36;;;;;;;2.53;1.20;;;-0.30;94.30;;;;;;4838221;29;20488;-77
2021/12/21 05:19:04;;;;;;;1.63;0.67;;;-0.30;94.30;;;;;;4820403;29;20527;-77
2021/12/21 05:21:32;;;;;;;2.00;0.73;;;-0.40;94.30;;;;;;4838436;29;20141;-77
2021/12/21 05:23:59;;;;;;;2.63;0.73;;;-0.40;94.20;;;;;;4824958;29;20046;-77
2021/12/21 05:26:27;;;;;;;2.30;1.00;;;-0.40;94.20;;;;;;4816826;29;20085;-77
2021/12/21 05:28:54;;;;;;;3.13;1.23;;;-0.40;94.20;;;;;;4824875;29;20053;-77
2021/12/21 05:31:21;;;;;;;2.80;1.07;;;-0.40;94.20;;;;;;4842954;29;20131;-77
2021/12/21 05:33:51;;;;;;;2.50;1.00;;;-0.40;94.30;;;;;;4827434;29;20457;-77
2021/12/21 05:36:20;;;;;;;3.63;0.90;;;-0.40;94.30;;;;;;4827187;29;20061;-77
2021/12/21 05:38:51;;;;;;;2.87;1.00;;;-0.40;94.30;;;;;;4834532;29;20050;-77
2021/12/21 05:41:25;;;;;;;2.37;0.90;;;-0.40;94.30;;;;;;4842638;29;20133;-77
2021/12/21 05:43:53;;;;;;;3.17;1.10;;;-0.50;94.30;;;;;;4844371;29;20058;-78
2021/12/21 05:46:20;;;;;;;2.50;0.93;;;-0.50;94.50;;;;;;4841834;29;20077;-77
2021/12/21 05:48:51;;;;;;;3.27;0.90;;;-0.50;94.30;;;;;;4840157;29;20568;-76
2021/12/21 05:51:20;;;;;;;5.50;1.17;;;-0.50;94.30;;;;;;4827723;29;20064;-77
2021/12/21 05:53:49;;;;;;;2.40;1.00;;;-0.50;94.30;;;;;;4847124;29;20062;-77
2021/12/21 05:56:19;;;;;;;3.60;1.07;;;-0.50;94.30;;;;;;4832462;29;20062;-76
2021/12/21 05:58:46;;;;;;;2.47;0.80;;;-0.50;94.30;;;;;;4826486;29;20747;-74
2021/12/21 06:01:13;;;;;;;2.80;1.20;;;-0.60;94.30;;;;;;4843107;29;20106;-77
2021/12/21 06:03:41;;;;;;;2.57;0.90;;;-0.50;94.30;;;;;;4838704;29;20054;-74
2021/12/21 06:06:13;;;;;;;3.33;1.27;;;-0.60;94.30;;;;;;4830903;29;20077;-73
2021/12/21 06:08:41;;;;;;;4.43;1.00;;;-0.60;94.30;;;;;;4839215;29;20148;-74
2021/12/21 06:11:12;;;;;;;2.77;0.90;;;-0.60;94.30;;;;;;4839275;29;20064;-74
2021/12/21 06:13:45;;;;;;;2.27;0.90;;;-0.60;94.30;;;;;;4837774;29;20054;-74
2021/12/21 06:26:44;;;;;;;2.70;0.90;;;-0.60;94.30;;;;;;4840605;29;20126;-74
2021/12/21 06:29:11;;;;;;;2.10;0.87;;;-0.70;94.20;;;;;;4843744;29;20073;-74
2021/12/21 06:31:41;;;;;;;3.23;0.90;;;-0.70;94.20;;;;;;4844656;29;20064;-73
2021/12/21 06:34:09;;;;;;;2.23;0.90;;;-0.70;94.20;;;;;;4829284;29;20041;-74
2021/12/21 06:36:36;;;;;;;2.60;1.07;;;-0.70;94.30;;;;;;4833229;29;20149;-73
2021/12/21 06:39:06;;;;;;;2.93;0.80;;;-0.70;94.30;;;;;;4811647;29;20129;-74
2021/12/21 06:41:37;;;;;;;2.70;1.10;;;-0.70;94.30;;;;;;4828286;29;20053;-73
2021/12/21 06:44:05;;;;;;;2.77;1.00;;;-0.70;94.30;;;;;;4825737;29;20053;-73
2021/12/21 06:52:10;;;;;;;2.80;1.00;;;-0.70;94.30;;;;;;4833398;29;20425;-74
2021/12/21 06:54:37;;;;;;;2.43;0.90;;;-0.70;94.30;;;;;;4842555;29;20050;-74
2021/12/21 06:57:05;;;;;;;2.03;0.73;;;-0.80;94.30;;;;;;4827742;29;20065;-74
2021/12/21 06:59:32;;;;;;;2.90;1.20;;;-0.70;94.30;;;;;;4828668;29;20057;-74
2021/12/21 07:01:59;;;;;;;2.43;0.97;;;-0.80;94.30;;;;;;4844474;29;20137;-74
2021/12/21 07:04:27;;;;;;;2.73;1.30;;;-0.70;94.30;;;;;;4844248;29;20054;-74
2021/12/21 07:06:57;;;;;;;3.47;0.77;;;-0.80;94.30;;;;;;4844159;29;20134;-74
2021/12/21 07:09:33;;;;;;;2.90;0.80;;;-0.80;94.30;;;;;;4827276;29;20062;-74
2021/12/21 07:20:11;;;;;;;3.60;1.20;;;-0.80;94.30;;;;;;4829916;29;20106;-74
2021/12/21 07:22:38;;;;;;;2.63;0.93;;;-0.80;94.30;;;;;;4844914;29;20051;-74
2021/12/21 07:25:06;;;;;;;2.07;0.70;;;-0.80;94.30;;;;;;4842406;29;20053;-74
2021/12/21 07:27:33;;;;;;;2.83;1.00;;;-0.80;94.30;;;;;;4839582;29;20076;-74
2021/12/21 07:30:00;;;;;;;2.23;0.83;;;-0.80;94.30;;;;;;4825779;29;20065;-74
2021/12/21 07:32:27;;;;;;;1.60;0.80;;;-0.80;94.30;;;;;;4846653;29;20049;-74
2021/12/21 07:34:54;;;;;;;2.60;0.97;;;-0.80;94.30;;;;;;4843744;29;20082;-75
2021/12/21 07:37:21;;;;;;;2.10;0.90;;;-0.80;94.30;;;;;;4827234;29;20050;-76
2021/12/21 07:39:52;;;;;;;2.80;1.40;;;-0.80;94.30;;;;;;4831157;29;20058;-76
2021/12/21 07:42:20;;;;;;;3.77;0.80;;;-0.80;94.30;;;;;;4845887;29;20054;-76
2021/12/21 07:44:48;;;;;;;3.97;1.00;;;-0.80;94.30;;;;;;4844820;29;20627;-76
2021/12/21 07:47:17;;;;;;;3.03;1.00;;;-0.80;94.30;;;;;;4845215;29;20494;-75
2021/12/21 07:49:44;;;;;;;3.63;1.03;;;-0.80;94.30;;;;;;4821212;29;20546;-76
2021/12/21 07:52:13;;;;;;;2.30;0.97;;;-0.80;94.40;;;;;;4842595;29;20136;-76
2021/12/21 07:54:40;;;;;;;2.83;1.60;;;-0.80;94.40;;;;;;4830028;29;20116;-76
2021/12/21 07:57:08;;;;;;;2.07;0.80;;;-0.80;94.40;;;;;;4842727;29;20072;-76
2021/12/21 07:59:36;;;;;;;2.43;1.00;;;-0.80;94.40;;;;;;4847038;29;20058;-74
2021/12/21 08:02:08;;;;;;;;;;;-0.80;94.30;;;;;;4844303;29;20045;-77
2021/12/21 08:04:36;;;;;;;4.67;1.80;;;-0.80;94.30;;;;;;4843945;29;19936;-76
2021/12/21 08:07:10;;;;;;;2.83;1.23;;;-0.80;94.40;;;;;;4829728;29;20090;-76
2021/12/21 08:09:43;;;;;;;2.57;0.87;;;-0.80;94.30;;;;;;4828590;29;20061;-76
2021/12/21 08:12:15;;;;;;;3.30;1.00;;;-0.70;94.40;;;;;;4824631;29;20085;-76
2021/12/21 08:14:44;;;;;;;;;;;-0.70;94.30;;;;;;4823112;29;20045;-76
2021/12/21 08:17:11;;;;;;;2.20;0.93;;;-0.80;94.30;;;;;;4843547;29;20330;-77
2021/12/21 08:19:43;;;;;;;2.70;1.10;;;-0.70;94.60;;;;;;4829572;29;20106;-76
2021/12/21 08:22:12;;;;;;;4.57;1.30;;;-0.70;94.40;;;;;;4827322;29;20053;-76
2021/12/21 08:24:40;;;;;;;3.23;1.30;;;-0.70;94.30;;;;;;4829716;29;20460;-77
2021/12/21 08:27:07;;;;;;;2.87;1.10;;;-0.70;94.30;;;;;;4828476;29;20046;-76
2021/12/21 08:29:35;;;;;;;3.63;1.07;;;-0.60;94.30;;;;;;4828941;29;20053;-77
2021/12/21 08:32:02;;;;;;;2.67;0.87;;;-0.60;94.30;;;;;;4820688;29;20045;-77
2021/12/21 08:34:29;;;;;;;4.00;1.57;;;-0.60;94.30;;;;;;4826731;29;20050;-74
2021/12/21 08:36:56;;;;;;;2.77;1.33;;;-0.50;94.30;;;;;;4828493;29;20870;-75
2021/12/21 08:39:24;;;;;;;3.20;1.20;;;-0.60;94.30;;;;;;4824349;29;21239;-77
2021/12/21 08:41:57;;;;;;;3.90;1.30;;;-0.50;94.30;;;;;;4842927;29;20065;-76
2021/12/21 08:44:25;;;;;;;3.45;1.20;;;-0.50;94.30;;;;;;4839740;29;20059;-77
2021/12/21 08:46:56;;;;;;;3.90;1.10;;;-0.50;94.30;;;;;;4840214;29;20049;-76
2021/12/21 08:49:25;;;;;;;3.25;1.10;;;-0.50;94.30;;;;;;4842523;29;20130;-77
2021/12/21 08:51:55;;;;;;;2.87;1.10;;;-0.40;94.30;;;;;;4825835;29;20046;-74
2021/12/21 08:54:23;;;;;;;2.77;1.07;;;-0.40;94.30;;;;;;4840888;29;20077;-74
2021/12/21 08:56:51;;;;;;;2.57;1.10;;;-0.40;94.30;;;;;;4842518;29;20057;-76
2021/12/21 08:59:19;;;;;;;3.13;1.57;;;-0.40;94.20;;;;;;4835127;29;20046;-76
2021/12/21 09:01:53;;;;;;;3.53;1.13;;;-0.30;94.30;;;;;;4828023;29;21161;-75
2021/12/21 09:04:22;;;;;;;2.95;1.27;;;-0.30;94.20;;;;;;4828221;29;20070;-76
2021/12/21 09:06:49;;;;;;;1.77;0.97;;;-0.30;94.20;;;;;;4840590;29;20065;-76
2021/12/21 09:09:17;;;;;;;2.30;1.13;;;-0.30;94.20;;;;;;4838883;29;20049;-74
2021/12/21 09:11:49;;;;;;;3.33;1.10;;;-0.30;94.20;;;;;;4814576;29;20141;-74
2021/12/21 09:14:18;;;;;;;2.07;0.70;;;-0.20;94.20;;;;;;4826406;29;20037;-75
2021/12/21 09:16:45;;;;;;;2.60;0.90;;;-0.20;94.20;;;;;;4841985;29;20121;-74
2021/12/21 09:19:12;;;;;;;2.20;1.00;;;-0.20;94.20;;;;;;4825717;29;20410;-74
2021/12/21 09:21:39;;;;;;;3.90;1.20;;;-0.10;94.20;;;;;;4841980;29;20065;-75
2021/12/21 09:24:08;;;;;;;3.17;1.00;;;-0.10;94.20;;;;;;4840697;29;20038;-77
2021/12/21 09:26:36;;;;;;;4.90;1.43;;;0.00;94.20;;;;;;4841184;29;20061;-78
2021/12/21 09:29:04;;;;;;;3.17;1.00;;;0.00;94.10;;;;;;4842749;29;20046;-78
2021/12/21 09:31:30;;;;;;;4.23;1.13;;;0.00;94.10;;;;;;4824977;29;20085;-74
2021/12/21 09:33:58;;;;;;;3.27;1.23;;;0.10;94.10;;;;;;4832721;29;20433;-73
2021/12/21 09:36:26;;;;;;;3.77;1.30;;;0.10;94.10;;;;;;4840154;29;20406;-73
2021/12/21 09:38:54;;;;;;;4.20;1.70;;;0.10;94.10;;;;;;4841722;29;20158;-75
2021/12/21 09:41:22;;;;;;;3.07;1.17;;;0.20;94.10;;;;;;4837833;29;20124;-74
2021/12/21 09:43:49;;;;;;;3.27;1.40;;;0.20;94.00;;;;;;4842203;29;20061;-74
2021/12/21 09:46:16;;;;;;;3.43;1.50;;;0.20;94.00;;;;;;4837246;29;20062;-74
2021/12/21 09:48:51;;;;;;;4.10;1.65;;;0.20;94.00;;;;;;4840248;29;20058;-74
2021/12/21 09:51:20;;;;;;;2.60;1.07;;;0.20;94.00;;;;;;4826135;29;20081;-74
2021/12/21 09:53:50;;;;;;;3.63;1.37;;;0.30;94.00;;;;;;4839220;29;20424;-74
2021/12/21 09:56:20;;;;;;;5.50;1.50;;;0.30;94.00;;;;;;4841714;29;20128;-76
2021/12/21 09:58:48;;;;;;;3.57;1.60;;;0.30;94.20;;;;;;4818740;29;20073;-76
2021/12/21 10:01:17;;;;;;;4.40;1.30;;;0.30;94.00;;;;;;4823598;29;20080;-74
2021/12/21 10:03:47;;;;;;;2.83;1.03;;;0.30;94.00;;;;;;4823810;29;20069;-74
2021/12/21 10:06:16;;;;;;;3.57;1.20;;;0.40;94.00;;;;;;4843858;29;20109;-77
2021/12/21 10:08:43;;;;;;;3.43;1.30;;;0.40;94.00;;;;;;4828578;29;20042;-74
2021/12/21 10:11:40;;;;;;;2.90;1.33;;;0.40;93.90;;;;;;4827473;29;20530;-76
2021/12/21 10:14:07;;;;;;;2.97;1.00;;;0.50;93.90;;;;;;4830134;29;20046;-75
2021/12/21 10:16:34;;;;;;;3.03;1.20;;;0.50;93.90;;;;;;4827782;29;20053;-75
2021/12/21 10:19:04;;;;;;;3.57;1.27;;;0.50;93.90;;;;;;4845021;29;20042;-76
2021/12/21 10:21:31;;;;;;;3.23;1.20;;;0.50;93.90;;;;;;4842851;29;20714;-76
2021/12/21 10:23:58;;;;;;;4.77;1.77;;;0.50;93.90;;;;;;4826746;29;20999;-74
2021/12/21 10:26:31;;;;;;;3.27;1.37;;;0.60;93.90;;;;;;4842651;29;20050;-75
2021/12/21 10:29:00;;;;;;;6.00;1.52;;;0.60;93.90;;;;;;4840783;29;20045;-74
2021/12/21 10:31:36;;;;;;;3.17;1.40;;;0.70;93.90;;;;;;4838824;29;20037;-74
2021/12/21 10:34:14;;;;;;;5.23;2.17;;;0.70;93.80;;;;;;4840930;29;20057;-74
2021/12/21 10:36:50;;;;;;;4.93;1.40;;;0.70;93.80;;;;;;4839143;29;20053;-74
2021/12/21 10:39:31;;;;;;;3.53;1.23;;;0.80;93.80;;;;;;4834531;29;20050;-75
2021/12/21 10:42:04;;;;;;;6.57;3.20;;;0.80;93.80;;;;;;4839007;29;20053;-72
2021/12/21 10:44:32;;;;;;;5.60;2.25;;;0.80;93.80;;;;;;4843059;29;20072;-72
2021/12/21 10:46:59;;;;;;;5.23;2.00;;;0.80;93.80;;;;;;4840151;29;20054;-73
2021/12/21 10:49:34;;;;;;;5.53;1.90;;;0.80;93.70;;;;;;4825918;29;20152;-73
2021/12/21 10:52:08;;;;;;;5.27;2.20;;;0.90;93.80;;;;;;4842776;29;20054;-72
2021/12/21 10:54:42;;;;;;;4.57;1.80;;;0.90;93.70;;;;;;4845037;29;20077;-72
2021/12/21 10:57:18;;;;;;;4.70;1.93;;;0.90;93.80;;;;;;4844504;29;20054;-72
2021/12/21 10:59:49;;;;;;;5.03;1.77;;;1.00;93.70;;;;;;4842092;29;20050;-72
2021/12/21 11:02:32;;;;;;;4.27;2.00;;;1.00;93.70;;;;;;4835720;29;20054;-72
2021/12/21 11:05:06;;;;;;;5.27;2.43;;;1.00;93.70;;;;;;4835448;29;21165;-72
2021/12/21 11:10:12;;;;;;;4.53;2.03;;;1.10;93.70;;;;;;4842620;29;20777;-73
2021/12/21 11:13:09;;;;;;;4.87;1.90;;;1.10;93.60;;;;;;4832180;29;20057;-73
2021/12/21 11:15:52;;;;;;;5.57;1.80;;;1.10;93.60;;;;;;4842483;29;20053;-73
2021/12/21 11:18:22;;;;;;;5.20;2.20;;;1.10;93.60;;;;;;4843621;29;20081;-73
2021/12/21 11:20:55;;;;;;;5.10;2.07;;;1.10;93.60;;;;;;4844247;29;20061;-73
2021/12/21 11:23:24;;;;;;;4.75;2.10;;;1.20;93.60;;;;;;4826014;29;20050;-73
2021/12/21 11:25:54;;;;;;;6.20;2.60;;;1.20;93.60;;;;;;4839017;29;20053;-74
2021/12/21 11:28:29;;;;;;;6.27;2.47;;;1.30;93.60;;;;;;4824207;29;20062;-73
2021/12/21 11:31:06;;;;;;;6.10;2.50;;;1.30;93.50;;;;;;4823479;29;20058;-74
2021/12/21 11:33:46;;;;;;;5.47;2.70;;;1.40;93.50;;;;;;4842408;29;20046;-80
2021/12/21 11:39:15;;;;;;;5.80;3.00;;;1.40;93.60;;;;;;4847289;29;20121;-80
2021/12/21 11:42:01;;;;;;;4.83;2.67;;;1.50;93.50;;;;;;4822167;29;20094;-79
2021/12/21 11:44:41;;;;;;;4.63;2.23;;;1.50;93.40;;;;;;4824624;29;20054;-78
2021/12/21 11:47:15;;;;;;;4.47;2.40;;;1.50;93.40;;;;;;4847368;29;20049;-78
2021/12/21 11:49:49;;;;;;;5.30;2.20;;;1.50;93.40;;;;;;4845263;29;20132;-76
2021/12/21 11:52:23;;;;;;;5.07;2.60;;;1.50;93.40;;;;;;4846054;29;20116;-75
2021/12/21 11:55:04;;;;;;;4.13;2.07;;;1.60;93.40;;;;;;4842175;29;20057;-75
2021/12/21 11:57:51;;;;;;;4.83;1.73;;;1.50;93.40;;;;;;4842953;29;21342;-73
2021/12/21 12:00:33;;;;;;;5.50;2.73;;;1.60;93.50;;;;;;4840481;29;20053;-73
2021/12/21 12:03:15;;;;;;;4.53;1.65;;;1.60;93.40;;;;;;4844896;29;20067;-77
2021/12/21 12:06:04;;;;;;;6.83;2.30;;;1.60;93.40;;;;;;4844552;29;20061;-76
2021/12/21 12:08:46;;;;;;;4.07;1.67;;;1.60;93.40;;;;;;4844841;29;20057;-80
2021/12/21 12:11:35;;;;;;;6.20;2.10;;;1.60;93.40;;;;;;4842158;29;20062;-78
2021/12/21 12:14:15;;;;;;;4.47;1.93;;;1.60;93.40;;;;;;4843776;29;20124;-78
2021/12/21 12:16:50;;;;;;;4.93;2.37;;;1.70;93.40;;;;;;4842873;29;20133;-78
2021/12/21 12:19:20;;;;;;;7.07;2.50;;;1.70;93.40;;;;;;4846414;29;20045;-76
2021/12/21 12:22:18;;;;;;;5.90;2.47;;;1.70;93.40;;;;;;4833316;29;20051;-75
2021/12/21 12:24:55;;;;;;;7.60;3.10;;;1.70;93.40;;;;;;4826568;29;20057;-75
2021/12/21 12:27:24;;;;;;;7.27;2.93;;;1.80;93.40;;;;;;4842297;29;20054;-75
2021/12/21 12:29:56;;;;;;;6.60;2.37;;;1.80;93.30;;;;;;4843897;29;20054;-77
2021/12/21 12:33:00;;;;;;;7.67;2.83;;;1.80;93.30;;;;;;4841366;29;20105;-76
2021/12/21 12:35:36;;;;;;;6.80;3.10;;;1.90;93.30;;;;;;4816120;29;20105;-79
2021/12/21 12:38:06;;;;;;;7.13;2.77;;;1.90;93.30;;;;;;4830105;29;20053;-81
2021/12/21 12:41:04;;;;;;;8.37;3.87;;;1.90;93.30;;;;;;4844115;29;20078;-82
2021/12/21 12:47:13;;;;;;;6.23;2.67;;;2.00;93.20;;;;;;4844694;29;20057;-77
2021/12/21 12:49:54;;;;;;;5.23;2.53;;;2.00;93.20;;;;;;4845581;29;20041;-72
2021/12/21 12:52:28;;;;;;;7.17;2.80;;;2.10;93.20;;;;;;4840112;29;20464;-75
2021/12/21 12:55:04;;;;;;;4.53;2.07;;;2.10;93.10;;;;;;4843208;29;20535;-74
2021/12/21 12:57:37;;;;;;;4.17;2.00;;;2.20;93.10;;;;;;4840629;29;20046;-74
2021/12/21 13:00:15;;;;;;;4.73;1.70;;;2.20;93.10;;;;;;4843653;29;20062;-74
2021/12/21 13:03:04;;;;;;;3.23;1.17;;;2.20;93.10;;;;;;4838066;29;20053;-74
2021/12/21 13:05:40;;;;;;;3.17;1.33;;;2.20;93.10;;;;;;4836637;29;20564;-74
2021/12/21 13:08:10;;;;;;;3.20;1.20;;;2.20;93.10;;;;;;4840062;29;20451;-73
2021/12/21 13:10:46;;;;;;;5.80;2.17;;;2.20;93.10;;;;;;4838759;29;20106;-75
2021/12/21 13:13:16;;;;;;;3.50;1.60;;;2.20;93.10;;;;;;4844455;29;20066;-75
2021/12/21 13:15:46;;;;;;;3.47;1.37;;;2.30;93.10;;;;;;4841797;29;20049;-75
2021/12/21 13:18:17;;;;;;;3.60;1.27;;;2.30;93.10;;;;;;4843541;29;20041;-73
2021/12/21 13:20:47;;;;;;;;;;;2.30;93.10;;;;;;4827497;29;20049;-73
2021/12/21 13:23:26;;;;;;;2.63;0.93;;;2.30;93.00;;;;;;4832782;29;19925;-74
2021/12/21 13:26:02;;;;;;;2.70;1.00;;;2.30;93.00;;;;;;4839929;29;20149;-74
2021/12/21 13:28:35;;;;;;;3.37;1.40;;;2.30;93.00;;;;;;4843156;29;20061;-75
2021/12/21 13:31:06;;;;;;;3.27;1.10;;;2.30;93.10;;;;;;4840319;29;20062;-74
2021/12/21 13:33:38;;;;;;;2.60;1.17;;;2.30;93.10;;;;;;4840060;29;20049;-73
2021/12/21 13:36:07;;;;;;;2.72;1.08;;;2.30;93.00;;;;;;4833341;29;20090;-73
2021/12/21 13:38:37;;;;;;;3.10;1.30;;;2.20;93.00;;;;;;4834849;29;20061;-73
2021/12/21 13:41:10;;;;;;;3.03;1.23;;;2.30;93.00;;;;;;4841967;29;20069;-74
2021/12/21 13:43:39;;;;;;;2.90;0.80;;;2.30;93.00;;;;;;4834042;29;20056;-73
2021/12/21 13:46:08;;;;;;;3.03;1.30;;;2.20;93.00;;;;;;4841247;29;20578;-74
2021/12/21 13:48:37;;;;;;;4.23;2.07;;;2.20;93.00;;;;;;4831220;29;20046;-76
2021/12/21 13:51:16;;;;;;;5.73;2.70;;;2.20;93.00;;;;;;4843132;29;20114;-74
2021/12/21 13:53:46;;;;;;;4.67;2.30;;;2.30;93.20;;;;;;4834836;29;20049;-75
2021/12/21 13:56:26;;;;;;;4.37;2.10;;;2.30;92.90;;;;;;4840784;29;20050;-75
2021/12/21 13:58:54;;;;;;;6.00;2.87;;;2.30;92.90;;;;;;4837050;29;20073;-75
2021/12/21 14:01:30;;;;;;;5.20;2.70;;;2.30;92.90;;;;;;4838926;29;20081;-74
2021/12/21 14:04:02;;;;;;;4.63;1.87;;;2.30;92.80;;;;;;4840360;29;20119;-74
2021/12/21 14:06:30;;;;;;;5.45;1.75;;;2.30;92.80;;;;;;4843382;29;20054;-75
2021/12/21 14:09:00;;;;;;;3.53;1.70;;;2.20;93.10;;;;;;4833929;29;20114;-75
2021/12/21 14:11:33;;;;;;;3.33;1.43;;;2.20;92.90;;;;;;4840990;29;20507;-74
2021/12/21 14:14:02;;;;;;;4.93;1.67;;;2.20;92.90;;;;;;4844159;29;20637;-73
2021/12/21 14:16:33;;;;;;;2.90;1.20;;;2.20;93.00;;;;;;4832847;29;20088;-75
2021/12/21 14:19:03;;;;;;;3.77;1.10;;;2.20;93.00;;;;;;4840375;29;20840;-74